KBTL/BTL METAR and TAF weather

Enter ICAO airport designator
Station Type Date Time Source
KBTL METAR 2019/06/17 13:07 UTC NOAA

KBTL 171307Z 10004KT 9SM OVC008 16/16 A3000 RMK AO2 CIG 005V011 T01610156


Station Type Date Time Source
KBTL Decoded METAR 2019/06/17 13:07 UTC NOAA

W.K.KELLOGG REGIONAL AIRPORT, MI, United States (KBTL) 42-18N 085-15W 290M
Jun 17, 2019 - 09:07 AM EDT / 2019.06.17 1307 UTC
Wind: from the E (100 degrees) at 5 MPH (4 KT):0
Visibility: 9 mile(s):0
Sky conditions: overcast
Temperature: 61.0 F (16.1 C)
Dew Point: 60.1 F (15.6 C)
Relative Humidity: 96%
Pressure (altimeter): 30 in. Hg (1015 hPa)
ob: KBTL 171307Z 10004KT 9SM OVC008 16/16 A3000 RMK AO2 CIG 005V011 T01610156
cycle: 13

Station Type Date Time Source
KBTL TAF 2019/06/17 13:15 UTC NOAA

TAF
AMD KBTL 171314Z 1713/1812 08005KT P6SM OVC008
FM171600 08005KT P6SM OVC018
FM172000 06004KT P6SM OVC025
FM180000 VRB03KT P6SM BKN035
FM180900 VRB03KT 5SM

Example: see airport list